sensor_id;sensor_type;location;lat;lon;timestamp;P1;durP1;ratioP1;P2;durP2;ratioP2
48613;SDS011;34408;51.426;5.444;2023-08-08T00:00:34;5.85;;;2.03;;
48613;SDS011;34408;51.426;5.444;2023-08-08T00:03:02;3.80;;;1.88;;
48613;SDS011;34408;51.426;5.444;2023-08-08T00:05:31;4.75;;;1.75;;
48613;SDS011;34408;51.426;5.444;2023-08-08T00:07:58;4.78;;;2.00;;
48613;SDS011;34408;51.426;5.444;2023-08-08T00:10:28;2.45;;;1.67;;
48613;SDS011;34408;51.426;5.444;2023-08-08T00:12:55;4.78;;;1.98;;
48613;SDS011;34408;51.426;5.444;2023-08-08T00:15:23;5.00;;;1.60;;
48613;SDS011;34408;51.426;5.444;2023-08-08T00:17:51;2.97;;;1.67;;
48613;SDS011;34408;51.426;5.444;2023-08-08T00:20:19;3.50;;;1.85;;
48613;SDS011;34408;51.426;5.444;2023-08-08T00:22:47;4.00;;;1.50;;
48613;SDS011;34408;51.426;5.444;2023-08-08T00:25:15;5.43;;;2.00;;
48613;SDS011;34408;51.426;5.444;2023-08-08T00:27:44;4.25;;;2.08;;
48613;SDS011;34408;51.426;5.444;2023-08-08T00:30:12;3.35;;;1.80;;
48613;SDS011;34408;51.426;5.444;2023-08-08T00:32:40;5.10;;;1.80;;
48613;SDS011;34408;51.426;5.444;2023-08-08T00:35:08;4.35;;;1.63;;
48613;SDS011;34408;51.426;5.444;2023-08-08T00:37:36;4.35;;;1.90;;
48613;SDS011;34408;51.426;5.444;2023-08-08T00:40:04;6.82;;;1.70;;
48613;SDS011;34408;51.426;5.444;2023-08-08T00:42:33;4.13;;;1.60;;
48613;SDS011;34408;51.426;5.444;2023-08-08T00:45:02;4.72;;;1.90;;
48613;SDS011;34408;51.426;5.444;2023-08-08T00:47:31;7.97;;;1.85;;
48613;SDS011;34408;51.426;5.444;2023-08-08T00:49:59;4.90;;;1.88;;
48613;SDS011;34408;51.426;5.444;2023-08-08T00:52:27;5.78;;;1.90;;
48613;SDS011;34408;51.426;5.444;2023-08-08T00:54:56;3.25;;;1.63;;
48613;SDS011;34408;51.426;5.444;2023-08-08T00:57:24;4.60;;;1.65;;
48613;SDS011;34408;51.426;5.444;2023-08-08T00:59:52;6.05;;;1.70;;
48613;SDS011;34408;51.426;5.444;2023-08-08T01:02:21;4.78;;;1.90;;
48613;SDS011;34408;51.426;5.444;2023-08-08T01:04:49;5.15;;;2.35;;
48613;SDS011;34408;51.426;5.444;2023-08-08T01:07:19;4.65;;;2.42;;
48613;SDS011;34408;51.426;5.444;2023-08-08T01:12:23;5.78;;;1.75;;
48613;SDS011;34408;51.426;5.444;2023-08-08T01:14:53;3.90;;;1.80;;
48613;SDS011;34408;51.426;5.444;2023-08-08T01:17:23;6.72;;;2.53;;
48613;SDS011;34408;51.426;5.444;2023-08-08T01:19:52;7.70;;;2.25;;
48613;SDS011;34408;51.426;5.444;2023-08-08T01:22:22;6.13;;;1.90;;
48613;SDS011;34408;51.426;5.444;2023-08-08T01:24:54;5.55;;;1.75;;
48613;SDS011;34408;51.426;5.444;2023-08-08T01:27:23;7.78;;;2.78;;
48613;SDS011;34408;51.426;5.444;2023-08-08T01:29:50;3.65;;;1.50;;
48613;SDS011;34408;51.426;5.444;2023-08-08T01:32:20;4.28;;;1.75;;
48613;SDS011;34408;51.426;5.444;2023-08-08T01:34:47;4.32;;;2.10;;
48613;SDS011;34408;51.426;5.444;2023-08-08T01:37:17;6.00;;;1.88;;
48613;SDS011;34408;51.426;5.444;2023-08-08T01:39:47;5.13;;;1.90;;
48613;SDS011;34408;51.426;5.444;2023-08-08T01:42:21;7.13;;;1.80;;
48613;SDS011;34408;51.426;5.444;2023-08-08T01:44:49;6.53;;;1.92;;
48613;SDS011;34408;51.426;5.444;2023-08-08T01:47:18;7.85;;;2.10;;
48613;SDS011;34408;51.426;5.444;2023-08-08T01:49:46;5.35;;;1.92;;
48613;SDS011;34408;51.426;5.444;2023-08-08T01:52:13;5.35;;;2.33;;
48613;SDS011;34408;51.426;5.444;2023-08-08T01:54:41;4.38;;;1.80;;
48613;SDS011;34408;51.426;5.444;2023-08-08T01:57:09;8.55;;;2.05;;
48613;SDS011;34408;51.426;5.444;2023-08-08T01:59:39;5.57;;;2.05;;
48613;SDS011;34408;51.426;5.444;2023-08-08T02:02:07;3.42;;;1.50;;
48613;SDS011;34408;51.426;5.444;2023-08-08T02:04:35;6.03;;;2.10;;
48613;SDS011;34408;51.426;5.444;2023-08-08T02:07:03;5.15;;;2.25;;
48613;SDS011;34408;51.426;5.444;2023-08-08T02:09:31;2.90;;;1.95;;
48613;SDS011;34408;51.426;5.444;2023-08-08T02:11:59;6.97;;;2.55;;
48613;SDS011;34408;51.426;5.444;2023-08-08T02:14:27;5.25;;;1.67;;
48613;SDS011;34408;51.426;5.444;2023-08-08T02:16:56;4.50;;;1.80;;
48613;SDS011;34408;51.426;5.444;2023-08-08T02:19:24;9.88;;;1.83;;
48613;SDS011;34408;51.426;5.444;2023-08-08T02:21:52;5.97;;;1.90;;
48613;SDS011;34408;51.426;5.444;2023-08-08T02:24:20;6.50;;;1.75;;
48613;SDS011;34408;51.426;5.444;2023-08-08T02:26:47;5.22;;;1.73;;
48613;SDS011;34408;51.426;5.444;2023-08-08T02:29:16;7.60;;;2.30;;
48613;SDS011;34408;51.426;5.444;2023-08-08T02:31:43;4.03;;;1.58;;
48613;SDS011;34408;51.426;5.444;2023-08-08T02:34:12;7.80;;;2.05;;
48613;SDS011;34408;51.426;5.444;2023-08-08T02:36:40;6.13;;;2.60;;
48613;SDS011;34408;51.426;5.444;2023-08-08T02:39:08;8.10;;;2.90;;
48613;SDS011;34408;51.426;5.444;2023-08-08T02:41:36;9.48;;;2.38;;
48613;SDS011;34408;51.426;5.444;2023-08-08T02:44:04;6.82;;;2.10;;
48613;SDS011;34408;51.426;5.444;2023-08-08T02:46:31;7.97;;;2.15;;
48613;SDS011;34408;51.426;5.444;2023-08-08T02:48:59;6.85;;;1.90;;
48613;SDS011;34408;51.426;5.444;2023-08-08T02:51:28;8.60;;;2.53;;
48613;SDS011;34408;51.426;5.444;2023-08-08T02:53:56;6.38;;;2.10;;
48613;SDS011;34408;51.426;5.444;2023-08-08T02:56:24;7.88;;;2.25;;
48613;SDS011;34408;51.426;5.444;2023-08-08T02:58:52;6.97;;;2.38;;
48613;SDS011;34408;51.426;5.444;2023-08-08T03:01:20;6.72;;;2.38;;
48613;SDS011;34408;51.426;5.444;2023-08-08T03:03:48;11.15;;;3.17;;
48613;SDS011;34408;51.426;5.444;2023-08-08T03:06:16;10.60;;;2.90;;
48613;SDS011;34408;51.426;5.444;2023-08-08T03:08:45;9.30;;;2.40;;
48613;SDS011;34408;51.426;5.444;2023-08-08T03:11:13;10.73;;;2.55;;
48613;SDS011;34408;51.426;5.444;2023-08-08T03:13:40;6.97;;;2.55;;
48613;SDS011;34408;51.426;5.444;2023-08-08T03:16:08;7.88;;;2.42;;
48613;SDS011;34408;51.426;5.444;2023-08-08T03:18:36;8.73;;;2.53;;
48613;SDS011;34408;51.426;5.444;2023-08-08T03:21:04;7.53;;;2.42;;
48613;SDS011;34408;51.426;5.444;2023-08-08T03:23:32;5.43;;;1.95;;
48613;SDS011;34408;51.426;5.444;2023-08-08T03:26:01;5.45;;;1.98;;
48613;SDS011;34408;51.426;5.444;2023-08-08T03:28:29;4.50;;;2.10;;
48613;SDS011;34408;51.426;5.444;2023-08-08T03:30:57;6.50;;;2.67;;
48613;SDS011;34408;51.426;5.444;2023-08-08T03:33:25;6.65;;;2.67;;
48613;SDS011;34408;51.426;5.444;2023-08-08T03:35:52;5.97;;;2.30;;
48613;SDS011;34408;51.426;5.444;2023-08-08T03:38:20;13.07;;;2.17;;
48613;SDS011;34408;51.426;5.444;2023-08-08T03:40:48;8.32;;;2.33;;
48613;SDS011;34408;51.426;5.444;2023-08-08T03:43:17;9.63;;;2.28;;
48613;SDS011;34408;51.426;5.444;2023-08-08T03:45:45;5.57;;;1.92;;
48613;SDS011;34408;51.426;5.444;2023-08-08T03:48:13;7.97;;;2.67;;
48613;SDS011;34408;51.426;5.444;2023-08-08T03:50:41;9.05;;;2.65;;
48613;SDS011;34408;51.426;5.444;2023-08-08T03:53:09;5.80;;;2.13;;
48613;SDS011;34408;51.426;5.444;2023-08-08T03:55:37;6.80;;;2.65;;
48613;SDS011;34408;51.426;5.444;2023-08-08T03:58:04;11.73;;;2.78;;
48613;SDS011;34408;51.426;5.444;2023-08-08T04:00:34;6.72;;;2.47;;
48613;SDS011;34408;51.426;5.444;2023-08-08T04:03:02;13.13;;;2.88;;
48613;SDS011;34408;51.426;5.444;2023-08-08T04:05:29;6.00;;;3.10;;
48613;SDS011;34408;51.426;5.444;2023-08-08T04:07:57;10.77;;;2.42;;
48613;SDS011;34408;51.426;5.444;2023-08-08T04:10:25;10.35;;;3.40;;
48613;SDS011;34408;51.426;5.444;2023-08-08T04:12:53;7.35;;;2.70;;
48613;SDS011;34408;51.426;5.444;2023-08-08T04:15:21;7.82;;;2.90;;
48613;SDS011;34408;51.426;5.444;2023-08-08T04:17:50;8.70;;;2.45;;
48613;SDS011;34408;51.426;5.444;2023-08-08T04:20:18;6.10;;;2.42;;
48613;SDS011;34408;51.426;5.444;2023-08-08T04:22:46;8.00;;;2.78;;
48613;SDS011;34408;51.426;5.444;2023-08-08T04:25:14;9.70;;;3.03;;
48613;SDS011;34408;51.426;5.444;2023-08-08T04:27:42;9.60;;;2.92;;
48613;SDS011;34408;51.426;5.444;2023-08-08T04:30:10;7.82;;;2.60;;
48613;SDS011;34408;51.426;5.444;2023-08-08T04:32:38;8.20;;;3.00;;
48613;SDS011;34408;51.426;5.444;2023-08-08T04:35:07;7.20;;;2.65;;
48613;SDS011;34408;51.426;5.444;2023-08-08T04:37:35;11.80;;;2.80;;
48613;SDS011;34408;51.426;5.444;2023-08-08T04:40:03;8.57;;;3.38;;
48613;SDS011;34408;51.426;5.444;2023-08-08T04:42:32;12.00;;;2.72;;
48613;SDS011;34408;51.426;5.444;2023-08-08T04:44:59;11.85;;;3.13;;
48613;SDS011;34408;51.426;5.444;2023-08-08T04:47:27;7.75;;;2.58;;
48613;SDS011;34408;51.426;5.444;2023-08-08T04:49:55;9.90;;;3.22;;
48613;SDS011;34408;51.426;5.444;2023-08-08T04:52:24;9.80;;;2.78;;
48613;SDS011;34408;51.426;5.444;2023-08-08T04:54:52;9.57;;;2.55;;
48613;SDS011;34408;51.426;5.444;2023-08-08T04:57:20;7.40;;;3.30;;
48613;SDS011;34408;51.426;5.444;2023-08-08T04:59:48;13.85;;;3.10;;
48613;SDS011;34408;51.426;5.444;2023-08-08T05:02:16;6.38;;;2.70;;
48613;SDS011;34408;51.426;5.444;2023-08-08T05:04:43;9.18;;;2.30;;
48613;SDS011;34408;51.426;5.444;2023-08-08T05:07:11;12.75;;;2.83;;
48613;SDS011;34408;51.426;5.444;2023-08-08T05:09:40;7.53;;;2.83;;
48613;SDS011;34408;51.426;5.444;2023-08-08T05:12:08;11.40;;;3.13;;
48613;SDS011;34408;51.426;5.444;2023-08-08T05:14:36;8.07;;;2.80;;
48613;SDS011;34408;51.426;5.444;2023-08-08T05:17:04;11.88;;;3.30;;
48613;SDS011;34408;51.426;5.444;2023-08-08T05:19:32;8.75;;;2.95;;
48613;SDS011;34408;51.426;5.444;2023-08-08T05:22:00;7.20;;;2.78;;
48613;SDS011;34408;51.426;5.444;2023-08-08T05:24:28;11.63;;;3.83;;
48613;SDS011;34408;51.426;5.444;2023-08-08T05:26:57;8.05;;;3.15;;
48613;SDS011;34408;51.426;5.444;2023-08-08T05:29:25;9.85;;;2.75;;
48613;SDS011;34408;51.426;5.444;2023-08-08T05:31:53;13.05;;;3.60;;
48613;SDS011;34408;51.426;5.444;2023-08-08T05:34:21;9.07;;;3.13;;
48613;SDS011;34408;51.426;5.444;2023-08-08T05:36:50;7.57;;;2.70;;
48613;SDS011;34408;51.426;5.444;2023-08-08T05:39:38;9.57;;;3.03;;
48613;SDS011;34408;51.426;5.444;2023-08-08T05:42:07;7.93;;;2.22;;
48613;SDS011;34408;51.426;5.444;2023-08-08T05:44:35;10.80;;;2.83;;
48613;SDS011;34408;51.426;5.444;2023-08-08T05:47:03;6.53;;;2.28;;
48613;SDS011;34408;51.426;5.444;2023-08-08T05:49:31;12.85;;;2.90;;
48613;SDS011;34408;51.426;5.444;2023-08-08T05:51:59;11.60;;;3.65;;
48613;SDS011;34408;51.426;5.444;2023-08-08T05:54:28;10.60;;;3.08;;
48613;SDS011;34408;51.426;5.444;2023-08-08T05:56:55;10.30;;;3.47;;
48613;SDS011;34408;51.426;5.444;2023-08-08T05:59:25;8.98;;;3.28;;
48613;SDS011;34408;51.426;5.444;2023-08-08T06:01:52;7.88;;;3.20;;
48613;SDS011;34408;51.426;5.444;2023-08-08T06:04:20;10.05;;;3.22;;
48613;SDS011;34408;51.426;5.444;2023-08-08T06:06:48;6.40;;;2.35;;
48613;SDS011;34408;51.426;5.444;2023-08-08T06:09:16;10.70;;;3.15;;
48613;SDS011;34408;51.426;5.444;2023-08-08T06:11:44;11.20;;;2.80;;
48613;SDS011;34408;51.426;5.444;2023-08-08T06:14:12;10.05;;;3.45;;
48613;SDS011;34408;51.426;5.444;2023-08-08T06:16:41;12.65;;;3.50;;
48613;SDS011;34408;51.426;5.444;2023-08-08T06:19:09;8.43;;;2.58;;
48613;SDS011;34408;51.426;5.444;2023-08-08T06:21:38;10.27;;;2.95;;
48613;SDS011;34408;51.426;5.444;2023-08-08T06:24:05;8.45;;;2.88;;
48613;SDS011;34408;51.426;5.444;2023-08-08T06:26:34;13.30;;;2.97;;
48613;SDS011;34408;51.426;5.444;2023-08-08T06:29:02;7.60;;;2.97;;
48613;SDS011;34408;51.426;5.444;2023-08-08T06:31:30;9.63;;;3.20;;
48613;SDS011;34408;51.426;5.444;2023-08-08T06:33:59;8.35;;;2.75;;
48613;SDS011;34408;51.426;5.444;2023-08-08T06:36:27;7.50;;;2.75;;
48613;SDS011;34408;51.426;5.444;2023-08-08T06:38:54;8.93;;;2.83;;
48613;SDS011;34408;51.426;5.444;2023-08-08T06:41:22;10.27;;;2.83;;
48613;SDS011;34408;51.426;5.444;2023-08-08T06:43:50;9.93;;;2.50;;
48613;SDS011;34408;51.426;5.444;2023-08-08T06:46:18;11.45;;;3.20;;
48613;SDS011;34408;51.426;5.444;2023-08-08T06:48:47;8.52;;;2.42;;
48613;SDS011;34408;51.426;5.444;2023-08-08T06:51:18;10.20;;;2.58;;
48613;SDS011;34408;51.426;5.444;2023-08-08T06:53:46;9.63;;;2.65;;
48613;SDS011;34408;51.426;5.444;2023-08-08T06:56:14;7.65;;;3.05;;
48613;SDS011;34408;51.426;5.444;2023-08-08T06:58:41;6.78;;;2.38;;
48613;SDS011;34408;51.426;5.444;2023-08-08T07:01:09;7.55;;;3.05;;
48613;SDS011;34408;51.426;5.444;2023-08-08T07:03:37;7.40;;;3.20;;
48613;SDS011;34408;51.426;5.444;2023-08-08T07:06:05;9.05;;;2.55;;
48613;SDS011;34408;51.426;5.444;2023-08-08T07:08:34;7.20;;;2.53;;
48613;SDS011;34408;51.426;5.444;2023-08-08T07:11:03;9.70;;;3.40;;
48613;SDS011;34408;51.426;5.444;2023-08-08T07:13:30;9.10;;;3.63;;
48613;SDS011;34408;51.426;5.444;2023-08-08T07:15:58;11.52;;;2.70;;
48613;SDS011;34408;51.426;5.444;2023-08-08T07:18:27;7.25;;;2.90;;
48613;SDS011;34408;51.426;5.444;2023-08-08T07:20:55;7.15;;;2.70;;
48613;SDS011;34408;51.426;5.444;2023-08-08T07:23:23;10.77;;;3.08;;
48613;SDS011;34408;51.426;5.444;2023-08-08T07:25:52;9.35;;;2.55;;
48613;SDS011;34408;51.426;5.444;2023-08-08T07:28:21;9.77;;;2.47;;
48613;SDS011;34408;51.426;5.444;2023-08-08T07:30:49;9.35;;;3.38;;
48613;SDS011;34408;51.426;5.444;2023-08-08T07:33:16;7.03;;;2.55;;
48613;SDS011;34408;51.426;5.444;2023-08-08T07:35:44;11.98;;;3.30;;
48613;SDS011;34408;51.426;5.444;2023-08-08T07:38:12;7.50;;;2.47;;
48613;SDS011;34408;51.426;5.444;2023-08-08T07:40:40;8.52;;;3.17;;
48613;SDS011;34408;51.426;5.444;2023-08-08T07:43:09;7.60;;;2.95;;
48613;SDS011;34408;51.426;5.444;2023-08-08T07:45:37;9.15;;;2.63;;
48613;SDS011;34408;51.426;5.444;2023-08-08T07:48:05;8.95;;;3.20;;
48613;SDS011;34408;51.426;5.444;2023-08-08T07:50:33;7.57;;;2.50;;
48613;SDS011;34408;51.426;5.444;2023-08-08T07:53:00;7.35;;;2.70;;
48613;SDS011;34408;51.426;5.444;2023-08-08T07:55:28;10.18;;;2.55;;
48613;SDS011;34408;51.426;5.444;2023-08-08T07:57:56;7.22;;;2.08;;
48613;SDS011;34408;51.426;5.444;2023-08-08T08:00:25;7.30;;;3.22;;
48613;SDS011;34408;51.426;5.444;2023-08-08T08:02:53;7.72;;;3.10;;
48613;SDS011;34408;51.426;5.444;2023-08-08T08:05:22;4.93;;;2.13;;
48613;SDS011;34408;51.426;5.444;2023-08-08T08:07:49;13.15;;;4.03;;
48613;SDS011;34408;51.426;5.444;2023-08-08T08:10:17;7.82;;;2.38;;
48613;SDS011;34408;51.426;5.444;2023-08-08T08:12:45;10.18;;;2.50;;
48613;SDS011;34408;51.426;5.444;2023-08-08T08:15:13;8.73;;;2.20;;
48613;SDS011;34408;51.426;5.444;2023-08-08T08:17:42;7.20;;;2.05;;
48613;SDS011;34408;51.426;5.444;2023-08-08T08:20:10;6.57;;;2.10;;
48613;SDS011;34408;51.426;5.444;2023-08-08T08:22:38;6.35;;;2.25;;
48613;SDS011;34408;51.426;5.444;2023-08-08T08:25:06;9.43;;;2.67;;
48613;SDS011;34408;51.426;5.444;2023-08-08T08:27:35;9.15;;;2.97;;
48613;SDS011;34408;51.426;5.444;2023-08-08T08:30:04;7.75;;;2.33;;
48613;SDS011;34408;51.426;5.444;2023-08-08T08:32:33;7.10;;;2.42;;
48613;SDS011;34408;51.426;5.444;2023-08-08T08:35:02;9.63;;;2.58;;
48613;SDS011;34408;51.426;5.444;2023-08-08T08:37:32;5.35;;;2.13;;
48613;SDS011;34408;51.426;5.444;2023-08-08T08:40:00;5.28;;;1.83;;
48613;SDS011;34408;51.426;5.444;2023-08-08T08:42:30;7.40;;;2.10;;
48613;SDS011;34408;51.426;5.444;2023-08-08T08:44:59;7.55;;;2.17;;
48613;SDS011;34408;51.426;5.444;2023-08-08T08:47:30;10.60;;;2.30;;
48613;SDS011;34408;51.426;5.444;2023-08-08T08:49:59;7.85;;;2.28;;
48613;SDS011;34408;51.426;5.444;2023-08-08T08:52:29;7.72;;;2.30;;
48613;SDS011;34408;51.426;5.444;2023-08-08T08:54:57;13.10;;;2.72;;
48613;SDS011;34408;51.426;5.444;2023-08-08T08:57:25;7.00;;;2.50;;
48613;SDS011;34408;51.426;5.444;2023-08-08T08:59:53;8.55;;;2.47;;
48613;SDS011;34408;51.426;5.444;2023-08-08T09:02:21;8.13;;;2.15;;
48613;SDS011;34408;51.426;5.444;2023-08-08T09:04:50;7.53;;;2.28;;
48613;SDS011;34408;51.426;5.444;2023-08-08T09:07:19;4.93;;;2.20;;
48613;SDS011;34408;51.426;5.444;2023-08-08T09:09:52;5.82;;;2.15;;
48613;SDS011;34408;51.426;5.444;2023-08-08T09:12:20;10.10;;;2.70;;
48613;SDS011;34408;51.426;5.444;2023-08-08T09:14:54;6.40;;;1.88;;
48613;SDS011;34408;51.426;5.444;2023-08-08T09:17:24;6.85;;;2.20;;
48613;SDS011;34408;51.426;5.444;2023-08-08T09:20:11;7.32;;;2.80;;
48613;SDS011;34408;51.426;5.444;2023-08-08T09:22:40;9.32;;;2.25;;
48613;SDS011;34408;51.426;5.444;2023-08-08T09:25:09;8.32;;;2.10;;
48613;SDS011;34408;51.426;5.444;2023-08-08T09:27:37;7.43;;;2.67;;
48613;SDS011;34408;51.426;5.444;2023-08-08T09:30:06;7.25;;;2.28;;
48613;SDS011;34408;51.426;5.444;2023-08-08T09:32:35;7.65;;;2.78;;
48613;SDS011;34408;51.426;5.444;2023-08-08T09:35:04;8.00;;;2.67;;
48613;SDS011;34408;51.426;5.444;2023-08-08T09:37:36;6.43;;;2.10;;
48613;SDS011;34408;51.426;5.444;2023-08-08T09:40:05;9.88;;;2.20;;
48613;SDS011;34408;51.426;5.444;2023-08-08T09:42:39;7.07;;;2.50;;
48613;SDS011;34408;51.426;5.444;2023-08-08T09:45:08;6.63;;;2.60;;
48613;SDS011;34408;51.426;5.444;2023-08-08T09:47:37;7.47;;;2.53;;
48613;SDS011;34408;51.426;5.444;2023-08-08T09:50:06;9.88;;;2.60;;
48613;SDS011;34408;51.426;5.444;2023-08-08T09:52:34;5.88;;;2.45;;
48613;SDS011;34408;51.426;5.444;2023-08-08T09:55:05;7.68;;;2.33;;
48613;SDS011;34408;51.426;5.444;2023-08-08T09:57:34;7.07;;;2.10;;
48613;SDS011;34408;51.426;5.444;2023-08-08T10:00:04;9.52;;;2.28;;
48613;SDS011;34408;51.426;5.444;2023-08-08T10:02:37;8.85;;;2.65;;
48613;SDS011;34408;51.426;5.444;2023-08-08T10:05:06;8.80;;;2.53;;
48613;SDS011;34408;51.426;5.444;2023-08-08T10:07:34;5.70;;;2.72;;
48613;SDS011;34408;51.426;5.444;2023-08-08T10:10:02;8.98;;;2.83;;
48613;SDS011;34408;51.426;5.444;2023-08-08T10:12:30;5.75;;;2.35;;
48613;SDS011;34408;51.426;5.444;2023-08-08T10:14:59;8.80;;;2.65;;
48613;SDS011;34408;51.426;5.444;2023-08-08T10:17:34;8.38;;;2.65;;
48613;SDS011;34408;51.426;5.444;2023-08-08T10:20:03;6.78;;;2.50;;
48613;SDS011;34408;51.426;5.444;2023-08-08T10:22:38;6.20;;;2.60;;
48613;SDS011;34408;51.426;5.444;2023-08-08T10:25:17;12.82;;;2.42;;
48613;SDS011;34408;51.426;5.444;2023-08-08T10:27:45;6.63;;;2.50;;
48613;SDS011;34408;51.426;5.444;2023-08-08T10:30:14;9.57;;;2.50;;
48613;SDS011;34408;51.426;5.444;2023-08-08T10:32:44;8.20;;;2.97;;
48613;SDS011;34408;51.426;5.444;2023-08-08T10:35:13;7.85;;;2.10;;
48613;SDS011;34408;51.426;5.444;2023-08-08T10:37:51;5.53;;;2.30;;
48613;SDS011;34408;51.426;5.444;2023-08-08T10:40:19;8.40;;;3.38;;
48613;SDS011;34408;51.426;5.444;2023-08-08T10:42:47;5.63;;;2.45;;
48613;SDS011;34408;51.426;5.444;2023-08-08T10:45:15;6.93;;;2.30;;
48613;SDS011;34408;51.426;5.444;2023-08-08T10:47:44;7.05;;;1.88;;
48613;SDS011;34408;51.426;5.444;2023-08-08T10:50:13;6.32;;;2.55;;
48613;SDS011;34408;51.426;5.444;2023-08-08T10:52:52;6.65;;;2.30;;
48613;SDS011;34408;51.426;5.444;2023-08-08T10:55:22;6.57;;;2.30;;
48613;SDS011;34408;51.426;5.444;2023-08-08T10:57:55;10.38;;;2.85;;
48613;SDS011;34408;51.426;5.444;2023-08-08T11:00:26;5.30;;;2.05;;
48613;SDS011;34408;51.426;5.444;2023-08-08T11:02:58;7.93;;;2.35;;
48613;SDS011;34408;51.426;5.444;2023-08-08T11:05:28;5.10;;;2.40;;
48613;SDS011;34408;51.426;5.444;2023-08-08T11:07:57;5.97;;;1.75;;
48613;SDS011;34408;51.426;5.444;2023-08-08T11:10:25;4.47;;;1.80;;
48613;SDS011;34408;51.426;5.444;2023-08-08T11:12:57;4.68;;;1.80;;
48613;SDS011;34408;51.426;5.444;2023-08-08T11:15:26;5.20;;;1.83;;
48613;SDS011;34408;51.426;5.444;2023-08-08T11:17:55;4.78;;;2.10;;
48613;SDS011;34408;51.426;5.444;2023-08-08T11:20:25;3.42;;;1.63;;
48613;SDS011;34408;51.426;5.444;2023-08-08T11:22:57;3.70;;;1.67;;
48613;SDS011;34408;51.426;5.444;2023-08-08T11:25:25;5.30;;;2.20;;
48613;SDS011;34408;51.426;5.444;2023-08-08T11:27:55;12.98;;;2.08;;
48613;SDS011;34408;51.426;5.444;2023-08-08T11:30:24;7.95;;;2.35;;
48613;SDS011;34408;51.426;5.444;2023-08-08T11:32:55;6.97;;;1.55;;
48613;SDS011;34408;51.426;5.444;2023-08-08T11:35:27;4.25;;;1.95;;
48613;SDS011;34408;51.426;5.444;2023-08-08T11:37:56;5.10;;;1.60;;
48613;SDS011;34408;51.426;5.444;2023-08-08T11:40:25;2.88;;;1.40;;
48613;SDS011;34408;51.426;5.444;2023-08-08T11:42:55;4.35;;;1.40;;
48613;SDS011;34408;51.426;5.444;2023-08-08T11:45:23;3.22;;;2.03;;
48613;SDS011;34408;51.426;5.444;2023-08-08T11:47:52;4.68;;;1.50;;
48613;SDS011;34408;51.426;5.444;2023-08-08T11:50:22;3.55;;;1.50;;
48613;SDS011;34408;51.426;5.444;2023-08-08T11:52:52;4.10;;;1.50;;
48613;SDS011;34408;51.426;5.444;2023-08-08T11:55:21;7.68;;;1.88;;
48613;SDS011;34408;51.426;5.444;2023-08-08T11:57:55;2.90;;;1.17;;
48613;SDS011;34408;51.426;5.444;2023-08-08T12:00:26;3.28;;;1.45;;
48613;SDS011;34408;51.426;5.444;2023-08-08T12:02:55;7.35;;;1.60;;
48613;SDS011;34408;51.426;5.444;2023-08-08T12:05:24;5.45;;;1.15;;
48613;SDS011;34408;51.426;5.444;2023-08-08T12:07:54;2.95;;;1.60;;
48613;SDS011;34408;51.426;5.444;2023-08-08T12:10:22;7.65;;;2.03;;
48613;SDS011;34408;51.426;5.444;2023-08-08T12:12:52;3.70;;;1.13;;
48613;SDS011;34408;51.426;5.444;2023-08-08T12:15:21;4.18;;;1.85;;
48613;SDS011;34408;51.426;5.444;2023-08-08T12:17:49;3.13;;;1.33;;
48613;SDS011;34408;51.426;5.444;2023-08-08T12:20:17;4.90;;;1.27;;
48613;SDS011;34408;51.426;5.444;2023-08-08T12:22:45;5.80;;;1.45;;
48613;SDS011;34408;51.426;5.444;2023-08-08T12:25:15;1.70;;;1.05;;
48613;SDS011;34408;51.426;5.444;2023-08-08T12:27:43;1.35;;;1.08;;
48613;SDS011;34408;51.426;5.444;2023-08-08T12:30:11;3.13;;;1.08;;
48613;SDS011;34408;51.426;5.444;2023-08-08T12:32:38;2.38;;;1.20;;
48613;SDS011;34408;51.426;5.444;2023-08-08T12:35:06;4.10;;;1.40;;
48613;SDS011;34408;51.426;5.444;2023-08-08T12:37:35;1.63;;;0.98;;
48613;SDS011;34408;51.426;5.444;2023-08-08T12:40:03;3.38;;;1.00;;
48613;SDS011;34408;51.426;5.444;2023-08-08T12:42:35;4.72;;;1.33;;
48613;SDS011;34408;51.426;5.444;2023-08-08T12:45:03;3.00;;;1.13;;
48613;SDS011;34408;51.426;5.444;2023-08-08T12:47:32;1.67;;;0.90;;
48613;SDS011;34408;51.426;5.444;2023-08-08T12:50:02;6.18;;;1.40;;
48613;SDS011;34408;51.426;5.444;2023-08-08T12:52:31;2.13;;;1.15;;
48613;SDS011;34408;51.426;5.444;2023-08-08T12:54:58;0.77;;;0.77;;
48613;SDS011;34408;51.426;5.444;2023-08-08T12:57:26;1.33;;;0.85;;
48613;SDS011;34408;51.426;5.444;2023-08-08T12:59:56;4.13;;;1.35;;
48613;SDS011;34408;51.426;5.444;2023-08-08T13:02:23;1.98;;;0.95;;
48613;SDS011;34408;51.426;5.444;2023-08-08T13:04:51;4.28;;;1.00;;
48613;SDS011;34408;51.426;5.444;2023-08-08T13:07:19;3.47;;;1.20;;
48613;SDS011;34408;51.426;5.444;2023-08-08T13:09:47;1.58;;;0.80;;
48613;SDS011;34408;51.426;5.444;2023-08-08T13:12:15;4.60;;;0.80;;
48613;SDS011;34408;51.426;5.444;2023-08-08T13:14:42;3.17;;;1.00;;
48613;SDS011;34408;51.426;5.444;2023-08-08T13:17:11;2.35;;;0.93;;
48613;SDS011;34408;51.426;5.444;2023-08-08T13:19:39;4.30;;;0.88;;
48613;SDS011;34408;51.426;5.444;2023-08-08T13:22:07;3.80;;;0.88;;
48613;SDS011;34408;51.426;5.444;2023-08-08T13:24:35;1.85;;;0.75;;
48613;SDS011;34408;51.426;5.444;2023-08-08T13:27:03;6.25;;;1.63;;
48613;SDS011;34408;51.426;5.444;2023-08-08T13:29:31;4.90;;;0.98;;
48613;SDS011;34408;51.426;5.444;2023-08-08T13:31:59;3.15;;;1.30;;
48613;SDS011;34408;51.426;5.444;2023-08-08T13:34:29;1.25;;;0.95;;
48613;SDS011;34408;51.426;5.444;2023-08-08T13:36:57;3.40;;;0.90;;
48613;SDS011;34408;51.426;5.444;2023-08-08T13:39:24;3.33;;;1.02;;
48613;SDS011;34408;51.426;5.444;2023-08-08T13:41:52;2.55;;;0.90;;
48613;SDS011;34408;51.426;5.444;2023-08-08T13:44:20;2.65;;;1.00;;
48613;SDS011;34408;51.426;5.444;2023-08-08T13:46:48;4.13;;;1.35;;
48613;SDS011;34408;51.426;5.444;2023-08-08T13:49:16;3.50;;;0.95;;
48613;SDS011;34408;51.426;5.444;2023-08-08T13:51:45;0.98;;;0.73;;
48613;SDS011;34408;51.426;5.444;2023-08-08T13:54:16;2.88;;;0.90;;
48613;SDS011;34408;51.426;5.444;2023-08-08T13:56:43;1.13;;;0.88;;
48613;SDS011;34408;51.426;5.444;2023-08-08T13:59:11;1.17;;;1.00;;
48613;SDS011;34408;51.426;5.444;2023-08-08T14:01:40;2.17;;;0.90;;
48613;SDS011;34408;51.426;5.444;2023-08-08T14:04:08;4.72;;;1.30;;
48613;SDS011;34408;51.426;5.444;2023-08-08T14:06:36;1.98;;;1.15;;
48613;SDS011;34408;51.426;5.444;2023-08-08T14:09:05;3.55;;;1.00;;
48613;SDS011;34408;51.426;5.444;2023-08-08T14:11:36;1.77;;;1.00;;
48613;SDS011;34408;51.426;5.444;2023-08-08T14:14:04;2.15;;;0.80;;
48613;SDS011;34408;51.426;5.444;2023-08-08T14:16:31;3.50;;;1.30;;
48613;SDS011;34408;51.426;5.444;2023-08-08T14:18:59;2.33;;;1.25;;
48613;SDS011;34408;51.426;5.444;2023-08-08T14:21:27;1.50;;;0.82;;
48613;SDS011;34408;51.426;5.444;2023-08-08T14:23:55;4.20;;;1.38;;
48613;SDS011;34408;51.426;5.444;2023-08-08T14:26:24;4.07;;;1.40;;
48613;SDS011;34408;51.426;5.444;2023-08-08T14:28:52;1.95;;;1.02;;
48613;SDS011;34408;51.426;5.444;2023-08-08T14:31:20;1.65;;;1.05;;
48613;SDS011;34408;51.426;5.444;2023-08-08T14:33:48;5.32;;;1.20;;
48613;SDS011;34408;51.426;5.444;2023-08-08T14:36:15;2.38;;;1.25;;
48613;SDS011;34408;51.426;5.444;2023-08-08T14:38:43;2.90;;;1.20;;
48613;SDS011;34408;51.426;5.444;2023-08-08T14:41:11;2.28;;;0.95;;
48613;SDS011;34408;51.426;5.444;2023-08-08T14:43:40;1.17;;;0.75;;
48613;SDS011;34408;51.426;5.444;2023-08-08T14:46:08;4.22;;;1.60;;
48613;SDS011;34408;51.426;5.444;2023-08-08T14:48:36;3.90;;;1.50;;
48613;SDS011;34408;51.426;5.444;2023-08-08T14:51:04;2.25;;;1.00;;
48613;SDS011;34408;51.426;5.444;2023-08-08T14:53:32;3.60;;;1.58;;
48613;SDS011;34408;51.426;5.444;2023-08-08T14:56:00;2.67;;;1.45;;